createdAt,value
2018-08-10T23:16:34.045Z,1016.65
2018-08-10T23:17:34.682Z,1016.60
2018-08-10T23:18:33.978Z,1016.61
2018-08-10T23:19:33.939Z,1016.61
2018-08-10T23:20:34.688Z,1016.55
2018-08-10T23:21:33.855Z,1016.58
2018-08-10T23:22:35.678Z,1016.58
2018-08-10T23:23:34.197Z,1016.59
2018-08-10T23:24:35.667Z,1016.56
2018-08-10T23:25:33.696Z,1016.56
2018-08-10T23:26:34.178Z,1016.56
2018-08-10T23:27:33.612Z,1016.50
2018-08-10T23:28:34.196Z,1016.51
2018-08-10T23:29:33.564Z,1016.52
2018-08-10T23:30:33.565Z,1016.52
2018-08-10T23:32:24.459Z,1016.48
2018-08-10T23:33:24.436Z,1016.49
2018-08-10T23:34:24.403Z,1016.45
2018-08-10T23:35:24.397Z,1016.44
2018-08-10T23:36:24.338Z,1016.50
2018-08-10T23:37:24.297Z,1016.40
2018-08-10T23:38:24.259Z,1016.41
2018-08-10T23:39:24.210Z,1016.44
2018-08-10T23:40:24.170Z,1016.49
2018-08-10T23:41:25.102Z,1016.46
2018-08-10T23:42:24.065Z,1016.48
2018-08-10T23:43:24.021Z,1016.42
2018-08-10T23:44:23.976Z,1016.42
2018-08-10T23:45:23.912Z,1016.41
2018-08-10T23:46:23.853Z,1016.45
2018-08-10T23:47:23.835Z,1016.36
2018-08-10T23:48:23.745Z,1016.40
2018-08-10T23:49:23.705Z,1016.38
2018-08-10T23:50:23.640Z,1016.39
2018-08-10T23:51:23.574Z,1016.39
2018-08-10T23:52:23.556Z,1016.36
2018-08-10T23:53:23.607Z,1016.33
2018-08-10T23:54:24.437Z,1016.29
2018-08-10T23:55:23.336Z,1016.33
2018-08-10T23:56:24.100Z,1016.27
2018-08-10T23:57:24.224Z,1016.27
2018-08-10T23:58:23.226Z,1016.24
2018-08-10T23:59:23.146Z,1016.29
